sensor_id;sensor_type;location;lat;lon;timestamp;P1;durP1;ratioP1;P2;durP2;ratioP2
15063;SDS011;7631;52.088;5.088;2023-04-09T00:02:11;13.07;;;11.43;;
15063;SDS011;7631;52.088;5.088;2023-04-09T00:04:36;12.30;;;11.10;;
15063;SDS011;7631;52.088;5.088;2023-04-09T00:07:01;12.07;;;10.87;;
15063;SDS011;7631;52.088;5.088;2023-04-09T00:09:26;12.33;;;11.03;;
15063;SDS011;7631;52.088;5.088;2023-04-09T00:11:51;12.50;;;11.20;;
15063;SDS011;7631;52.088;5.088;2023-04-09T00:14:17;12.97;;;11.10;;
15063;SDS011;7631;52.088;5.088;2023-04-09T00:16:42;11.80;;;10.60;;
15063;SDS011;7631;52.088;5.088;2023-04-09T00:19:07;12.37;;;10.97;;
15063;SDS011;7631;52.088;5.088;2023-04-09T00:21:32;12.07;;;10.57;;
15063;SDS011;7631;52.088;5.088;2023-04-09T00:23:58;13.07;;;11.00;;
15063;SDS011;7631;52.088;5.088;2023-04-09T00:26:23;12.33;;;10.80;;
15063;SDS011;7631;52.088;5.088;2023-04-09T00:28:48;12.27;;;10.37;;
15063;SDS011;7631;52.088;5.088;2023-04-09T00:31:13;11.83;;;10.57;;
15063;SDS011;7631;52.088;5.088;2023-04-09T00:33:38;12.57;;;11.27;;
15063;SDS011;7631;52.088;5.088;2023-04-09T00:36:04;12.60;;;11.10;;
15063;SDS011;7631;52.088;5.088;2023-04-09T00:38:30;13.20;;;11.53;;
15063;SDS011;7631;52.088;5.088;2023-04-09T00:40:55;12.43;;;10.93;;
15063;SDS011;7631;52.088;5.088;2023-04-09T00:43:20;12.93;;;11.33;;
15063;SDS011;7631;52.088;5.088;2023-04-09T00:45:46;13.23;;;11.00;;
15063;SDS011;7631;52.088;5.088;2023-04-09T00:48:12;12.87;;;11.47;;
15063;SDS011;7631;52.088;5.088;2023-04-09T00:50:37;12.93;;;10.97;;
15063;SDS011;7631;52.088;5.088;2023-04-09T00:53:02;12.37;;;10.60;;
15063;SDS011;7631;52.088;5.088;2023-04-09T00:55:28;12.20;;;10.80;;
15063;SDS011;7631;52.088;5.088;2023-04-09T00:57:54;13.87;;;11.53;;
15063;SDS011;7631;52.088;5.088;2023-04-09T01:00:19;13.50;;;11.00;;
15063;SDS011;7631;52.088;5.088;2023-04-09T01:02:45;13.13;;;11.30;;
15063;SDS011;7631;52.088;5.088;2023-04-09T01:05:10;13.53;;;11.57;;
15063;SDS011;7631;52.088;5.088;2023-04-09T01:10:23;13.27;;;11.07;;
15063;SDS011;7631;52.088;5.088;2023-04-09T01:13:15;12.67;;;11.07;;
15063;SDS011;7631;52.088;5.088;2023-04-09T01:15:38;13.40;;;11.50;;
15063;SDS011;7631;52.088;5.088;2023-04-09T01:18:09;13.37;;;10.90;;
15063;SDS011;7631;52.088;5.088;2023-04-09T01:20:39;13.20;;;11.40;;
15063;SDS011;7631;52.088;5.088;2023-04-09T01:23:18;13.73;;;11.10;;
15063;SDS011;7631;52.088;5.088;2023-04-09T01:26:02;13.13;;;10.97;;
15063;SDS011;7631;52.088;5.088;2023-04-09T01:28:32;13.73;;;11.40;;
15063;SDS011;7631;52.088;5.088;2023-04-09T01:30:58;12.70;;;11.13;;
15063;SDS011;7631;52.088;5.088;2023-04-09T01:33:24;13.63;;;11.60;;
15063;SDS011;7631;52.088;5.088;2023-04-09T01:35:50;13.30;;;11.17;;
15063;SDS011;7631;52.088;5.088;2023-04-09T01:38:17;13.90;;;11.13;;
15063;SDS011;7631;52.088;5.088;2023-04-09T01:40:43;14.13;;;11.00;;
15063;SDS011;7631;52.088;5.088;2023-04-09T01:43:08;14.43;;;12.00;;
15063;SDS011;7631;52.088;5.088;2023-04-09T01:45:34;13.47;;;11.53;;
15063;SDS011;7631;52.088;5.088;2023-04-09T01:47:59;13.53;;;11.63;;
15063;SDS011;7631;52.088;5.088;2023-04-09T01:50:26;14.67;;;12.17;;
15063;SDS011;7631;52.088;5.088;2023-04-09T01:52:51;14.57;;;12.30;;
15063;SDS011;7631;52.088;5.088;2023-04-09T01:55:16;13.10;;;10.83;;
15063;SDS011;7631;52.088;5.088;2023-04-09T01:57:42;13.17;;;11.27;;
15063;SDS011;7631;52.088;5.088;2023-04-09T02:00:07;14.17;;;11.77;;
15063;SDS011;7631;52.088;5.088;2023-04-09T02:02:39;13.83;;;11.47;;
15063;SDS011;7631;52.088;5.088;2023-04-09T02:05:06;13.27;;;11.33;;
15063;SDS011;7631;52.088;5.088;2023-04-09T02:10:01;12.13;;;10.73;;
15063;SDS011;7631;52.088;5.088;2023-04-09T02:12:26;13.87;;;10.67;;
15063;SDS011;7631;52.088;5.088;2023-04-09T02:14:53;13.10;;;11.53;;
15063;SDS011;7631;52.088;5.088;2023-04-09T02:17:18;13.60;;;11.33;;
15063;SDS011;7631;52.088;5.088;2023-04-09T02:19:44;13.60;;;11.07;;
15063;SDS011;7631;52.088;5.088;2023-04-09T02:22:10;13.83;;;11.07;;
15063;SDS011;7631;52.088;5.088;2023-04-09T02:24:35;13.93;;;11.37;;
15063;SDS011;7631;52.088;5.088;2023-04-09T02:27:01;13.97;;;11.47;;
15063;SDS011;7631;52.088;5.088;2023-04-09T02:29:26;14.37;;;11.33;;
15063;SDS011;7631;52.088;5.088;2023-04-09T02:31:51;12.40;;;11.07;;
15063;SDS011;7631;52.088;5.088;2023-04-09T02:34:17;14.13;;;11.43;;
15063;SDS011;7631;52.088;5.088;2023-04-09T02:36:42;13.57;;;10.70;;
15063;SDS011;7631;52.088;5.088;2023-04-09T02:39:08;12.97;;;10.93;;
15063;SDS011;7631;52.088;5.088;2023-04-09T02:41:33;14.57;;;11.33;;
15063;SDS011;7631;52.088;5.088;2023-04-09T02:43:58;13.93;;;11.27;;
15063;SDS011;7631;52.088;5.088;2023-04-09T02:46:23;12.73;;;10.47;;
15063;SDS011;7631;52.088;5.088;2023-04-09T02:48:48;13.53;;;11.03;;
15063;SDS011;7631;52.088;5.088;2023-04-09T02:51:14;13.13;;;10.83;;
15063;SDS011;7631;52.088;5.088;2023-04-09T02:53:39;12.83;;;10.63;;
15063;SDS011;7631;52.088;5.088;2023-04-09T02:56:05;13.33;;;11.10;;
15063;SDS011;7631;52.088;5.088;2023-04-09T02:58:30;13.87;;;10.90;;
15063;SDS011;7631;52.088;5.088;2023-04-09T03:00:55;13.83;;;11.03;;
15063;SDS011;7631;52.088;5.088;2023-04-09T03:03:20;15.03;;;11.57;;
15063;SDS011;7631;52.088;5.088;2023-04-09T03:05:45;13.70;;;10.93;;
15063;SDS011;7631;52.088;5.088;2023-04-09T03:08:11;14.20;;;11.37;;
15063;SDS011;7631;52.088;5.088;2023-04-09T03:10:36;13.83;;;11.70;;
15063;SDS011;7631;52.088;5.088;2023-04-09T03:13:01;12.63;;;10.53;;
15063;SDS011;7631;52.088;5.088;2023-04-09T03:15:26;12.90;;;10.70;;
15063;SDS011;7631;52.088;5.088;2023-04-09T03:17:51;13.37;;;10.73;;
15063;SDS011;7631;52.088;5.088;2023-04-09T03:20:17;12.93;;;10.60;;
15063;SDS011;7631;52.088;5.088;2023-04-09T03:22:42;12.73;;;10.37;;
15063;SDS011;7631;52.088;5.088;2023-04-09T03:25:07;14.07;;;11.37;;
15063;SDS011;7631;52.088;5.088;2023-04-09T03:27:32;13.30;;;10.80;;
15063;SDS011;7631;52.088;5.088;2023-04-09T03:29:58;12.47;;;10.43;;
15063;SDS011;7631;52.088;5.088;2023-04-09T03:32:23;13.37;;;10.73;;
15063;SDS011;7631;52.088;5.088;2023-04-09T03:34:48;13.40;;;11.43;;
15063;SDS011;7631;52.088;5.088;2023-04-09T03:37:13;13.77;;;10.83;;
15063;SDS011;7631;52.088;5.088;2023-04-09T03:39:39;12.67;;;11.00;;
15063;SDS011;7631;52.088;5.088;2023-04-09T03:42:04;11.80;;;10.30;;
15063;SDS011;7631;52.088;5.088;2023-04-09T03:44:29;12.03;;;9.67;;
15063;SDS011;7631;52.088;5.088;2023-04-09T03:46:55;12.20;;;10.77;;
15063;SDS011;7631;52.088;5.088;2023-04-09T03:49:20;14.57;;;11.23;;
15063;SDS011;7631;52.088;5.088;2023-04-09T03:51:45;13.80;;;11.30;;
15063;SDS011;7631;52.088;5.088;2023-04-09T03:54:10;12.83;;;10.93;;
15063;SDS011;7631;52.088;5.088;2023-04-09T03:56:36;13.83;;;11.20;;
15063;SDS011;7631;52.088;5.088;2023-04-09T03:59:01;13.77;;;11.27;;
15063;SDS011;7631;52.088;5.088;2023-04-09T04:01:26;12.37;;;10.20;;
15063;SDS011;7631;52.088;5.088;2023-04-09T04:03:51;12.73;;;10.30;;
15063;SDS011;7631;52.088;5.088;2023-04-09T04:06:16;13.23;;;11.23;;
15063;SDS011;7631;52.088;5.088;2023-04-09T04:08:42;13.57;;;11.13;;
15063;SDS011;7631;52.088;5.088;2023-04-09T04:11:08;13.27;;;10.57;;
15063;SDS011;7631;52.088;5.088;2023-04-09T04:13:33;13.53;;;11.33;;
15063;SDS011;7631;52.088;5.088;2023-04-09T04:15:59;13.00;;;11.00;;
15063;SDS011;7631;52.088;5.088;2023-04-09T04:18:24;12.60;;;10.33;;
15063;SDS011;7631;52.088;5.088;2023-04-09T04:20:49;14.03;;;11.13;;
15063;SDS011;7631;52.088;5.088;2023-04-09T04:23:14;12.90;;;10.47;;
15063;SDS011;7631;52.088;5.088;2023-04-09T04:25:40;13.33;;;10.87;;
15063;SDS011;7631;52.088;5.088;2023-04-09T04:28:06;13.00;;;10.63;;
15063;SDS011;7631;52.088;5.088;2023-04-09T04:30:31;13.03;;;10.40;;
15063;SDS011;7631;52.088;5.088;2023-04-09T04:32:56;12.37;;;10.27;;
15063;SDS011;7631;52.088;5.088;2023-04-09T04:35:21;12.87;;;10.47;;
15063;SDS011;7631;52.088;5.088;2023-04-09T04:37:48;14.60;;;11.10;;
15063;SDS011;7631;52.088;5.088;2023-04-09T04:40:13;13.93;;;11.10;;
15063;SDS011;7631;52.088;5.088;2023-04-09T04:42:39;14.23;;;11.63;;
15063;SDS011;7631;52.088;5.088;2023-04-09T04:45:04;13.40;;;10.97;;
15063;SDS011;7631;52.088;5.088;2023-04-09T04:47:30;13.73;;;10.77;;
15063;SDS011;7631;52.088;5.088;2023-04-09T04:49:56;13.80;;;10.90;;
15063;SDS011;7631;52.088;5.088;2023-04-09T04:52:21;12.87;;;10.90;;
15063;SDS011;7631;52.088;5.088;2023-04-09T04:54:46;14.27;;;11.13;;
15063;SDS011;7631;52.088;5.088;2023-04-09T04:57:12;13.80;;;11.23;;
15063;SDS011;7631;52.088;5.088;2023-04-09T04:59:37;13.20;;;10.47;;
15063;SDS011;7631;52.088;5.088;2023-04-09T05:02:03;12.80;;;11.03;;
15063;SDS011;7631;52.088;5.088;2023-04-09T05:04:29;13.97;;;11.20;;
15063;SDS011;7631;52.088;5.088;2023-04-09T05:06:54;13.50;;;11.10;;
15063;SDS011;7631;52.088;5.088;2023-04-09T05:09:19;13.37;;;10.60;;
15063;SDS011;7631;52.088;5.088;2023-04-09T05:11:44;12.37;;;10.37;;
15063;SDS011;7631;52.088;5.088;2023-04-09T05:14:10;11.17;;;9.90;;
15063;SDS011;7631;52.088;5.088;2023-04-09T05:16:37;13.07;;;10.23;;
15063;SDS011;7631;52.088;5.088;2023-04-09T05:19:02;12.70;;;10.67;;
15063;SDS011;7631;52.088;5.088;2023-04-09T05:21:27;13.30;;;11.10;;
15063;SDS011;7631;52.088;5.088;2023-04-09T05:23:52;14.67;;;11.70;;
15063;SDS011;7631;52.088;5.088;2023-04-09T05:26:18;13.63;;;11.33;;
15063;SDS011;7631;52.088;5.088;2023-04-09T05:28:43;12.50;;;10.37;;
15063;SDS011;7631;52.088;5.088;2023-04-09T05:31:08;13.10;;;11.13;;
15063;SDS011;7631;52.088;5.088;2023-04-09T05:33:36;14.67;;;11.80;;
15063;SDS011;7631;52.088;5.088;2023-04-09T05:36:02;13.80;;;11.33;;
15063;SDS011;7631;52.088;5.088;2023-04-09T05:38:27;14.37;;;10.93;;
15063;SDS011;7631;52.088;5.088;2023-04-09T05:40:52;14.23;;;11.73;;
15063;SDS011;7631;52.088;5.088;2023-04-09T05:43:18;13.77;;;11.53;;
15063;SDS011;7631;52.088;5.088;2023-04-09T05:45:44;13.67;;;11.27;;
15063;SDS011;7631;52.088;5.088;2023-04-09T05:48:09;13.73;;;11.40;;
15063;SDS011;7631;52.088;5.088;2023-04-09T05:50:34;13.60;;;11.13;;
15063;SDS011;7631;52.088;5.088;2023-04-09T05:53:00;13.97;;;11.10;;
15063;SDS011;7631;52.088;5.088;2023-04-09T05:55:25;14.90;;;11.30;;
15063;SDS011;7631;52.088;5.088;2023-04-09T05:57:51;15.17;;;11.97;;
15063;SDS011;7631;52.088;5.088;2023-04-09T06:00:16;15.23;;;11.83;;
15063;SDS011;7631;52.088;5.088;2023-04-09T06:02:42;14.60;;;11.93;;
15063;SDS011;7631;52.088;5.088;2023-04-09T06:05:08;15.80;;;12.47;;
15063;SDS011;7631;52.088;5.088;2023-04-09T06:07:33;12.87;;;11.23;;
15063;SDS011;7631;52.088;5.088;2023-04-09T06:09:58;13.60;;;11.30;;
15063;SDS011;7631;52.088;5.088;2023-04-09T06:12:23;13.80;;;11.27;;
15063;SDS011;7631;52.088;5.088;2023-04-09T06:14:49;14.80;;;11.63;;
15063;SDS011;7631;52.088;5.088;2023-04-09T06:17:15;13.87;;;11.50;;
15063;SDS011;7631;52.088;5.088;2023-04-09T06:19:40;13.80;;;11.17;;
15063;SDS011;7631;52.088;5.088;2023-04-09T06:22:05;15.37;;;11.40;;
15063;SDS011;7631;52.088;5.088;2023-04-09T06:24:33;14.23;;;11.47;;
15063;SDS011;7631;52.088;5.088;2023-04-09T06:26:58;12.93;;;10.90;;
15063;SDS011;7631;52.088;5.088;2023-04-09T06:29:24;13.87;;;11.40;;
15063;SDS011;7631;52.088;5.088;2023-04-09T06:31:49;14.60;;;11.57;;
15063;SDS011;7631;52.088;5.088;2023-04-09T06:34:15;13.33;;;10.87;;
15063;SDS011;7631;52.088;5.088;2023-04-09T06:36:40;14.33;;;11.40;;
15063;SDS011;7631;52.088;5.088;2023-04-09T06:39:05;14.57;;;11.57;;
15063;SDS011;7631;52.088;5.088;2023-04-09T06:41:31;14.17;;;11.77;;
15063;SDS011;7631;52.088;5.088;2023-04-09T06:43:57;14.43;;;11.37;;
15063;SDS011;7631;52.088;5.088;2023-04-09T06:46:22;15.37;;;11.87;;
15063;SDS011;7631;52.088;5.088;2023-04-09T06:48:48;15.57;;;11.97;;
15063;SDS011;7631;52.088;5.088;2023-04-09T06:51:13;15.70;;;11.77;;
15063;SDS011;7631;52.088;5.088;2023-04-09T06:53:39;16.33;;;13.00;;
15063;SDS011;7631;52.088;5.088;2023-04-09T06:56:04;15.33;;;12.20;;
15063;SDS011;7631;52.088;5.088;2023-04-09T06:58:30;16.70;;;12.63;;
15063;SDS011;7631;52.088;5.088;2023-04-09T07:00:55;15.97;;;12.13;;
15063;SDS011;7631;52.088;5.088;2023-04-09T07:03:20;15.40;;;12.30;;
15063;SDS011;7631;52.088;5.088;2023-04-09T07:05:45;17.33;;;13.00;;
15063;SDS011;7631;52.088;5.088;2023-04-09T07:08:11;16.07;;;12.80;;
15063;SDS011;7631;52.088;5.088;2023-04-09T07:10:36;17.57;;;13.40;;
15063;SDS011;7631;52.088;5.088;2023-04-09T07:13:01;18.53;;;14.00;;
15063;SDS011;7631;52.088;5.088;2023-04-09T07:15:27;18.43;;;13.83;;
15063;SDS011;7631;52.088;5.088;2023-04-09T07:17:52;18.33;;;13.93;;
15063;SDS011;7631;52.088;5.088;2023-04-09T07:20:17;16.90;;;12.83;;
15063;SDS011;7631;52.088;5.088;2023-04-09T07:22:42;18.70;;;14.30;;
15063;SDS011;7631;52.088;5.088;2023-04-09T07:25:08;16.77;;;13.60;;
15063;SDS011;7631;52.088;5.088;2023-04-09T07:27:33;18.90;;;14.33;;
15063;SDS011;7631;52.088;5.088;2023-04-09T07:29:59;16.60;;;14.03;;
15063;SDS011;7631;52.088;5.088;2023-04-09T07:32:25;18.40;;;14.20;;
15063;SDS011;7631;52.088;5.088;2023-04-09T07:34:51;19.53;;;15.33;;
15063;SDS011;7631;52.088;5.088;2023-04-09T07:37:17;18.73;;;14.57;;
15063;SDS011;7631;52.088;5.088;2023-04-09T07:39:42;19.77;;;14.60;;
15063;SDS011;7631;52.088;5.088;2023-04-09T07:42:07;19.37;;;14.43;;
15063;SDS011;7631;52.088;5.088;2023-04-09T07:44:36;18.70;;;14.23;;
15063;SDS011;7631;52.088;5.088;2023-04-09T07:47:01;18.53;;;14.60;;
15063;SDS011;7631;52.088;5.088;2023-04-09T07:49:27;18.93;;;15.10;;
15063;SDS011;7631;52.088;5.088;2023-04-09T07:51:52;18.27;;;13.93;;
15063;SDS011;7631;52.088;5.088;2023-04-09T07:54:17;18.70;;;13.80;;
15063;SDS011;7631;52.088;5.088;2023-04-09T07:56:45;19.23;;;15.30;;
15063;SDS011;7631;52.088;5.088;2023-04-09T07:59:10;21.37;;;18.23;;
15063;SDS011;7631;52.088;5.088;2023-04-09T08:01:35;19.87;;;17.27;;
15063;SDS011;7631;52.088;5.088;2023-04-09T08:04:00;18.07;;;15.10;;
15063;SDS011;7631;52.088;5.088;2023-04-09T08:06:26;18.43;;;14.50;;
15063;SDS011;7631;52.088;5.088;2023-04-09T08:08:51;21.07;;;16.40;;
15063;SDS011;7631;52.088;5.088;2023-04-09T08:11:18;20.43;;;15.67;;
15063;SDS011;7631;52.088;5.088;2023-04-09T08:13:49;21.70;;;16.07;;
15063;SDS011;7631;52.088;5.088;2023-04-09T08:16:15;19.03;;;15.20;;
15063;SDS011;7631;52.088;5.088;2023-04-09T08:18:40;19.20;;;14.53;;
15063;SDS011;7631;52.088;5.088;2023-04-09T08:21:05;19.97;;;16.00;;
15063;SDS011;7631;52.088;5.088;2023-04-09T08:23:31;18.67;;;15.30;;
15063;SDS011;7631;52.088;5.088;2023-04-09T08:25:56;19.17;;;15.70;;
15063;SDS011;7631;52.088;5.088;2023-04-09T08:28:21;20.00;;;16.00;;
15063;SDS011;7631;52.088;5.088;2023-04-09T08:30:47;19.80;;;14.83;;
15063;SDS011;7631;52.088;5.088;2023-04-09T08:33:12;18.80;;;14.97;;
15063;SDS011;7631;52.088;5.088;2023-04-09T08:35:37;19.13;;;15.10;;
15063;SDS011;7631;52.088;5.088;2023-04-09T08:38:04;20.33;;;15.83;;
15063;SDS011;7631;52.088;5.088;2023-04-09T08:40:33;19.67;;;14.93;;
15063;SDS011;7631;52.088;5.088;2023-04-09T08:42:58;20.40;;;15.90;;
15063;SDS011;7631;52.088;5.088;2023-04-09T08:45:23;18.43;;;14.77;;
15063;SDS011;7631;52.088;5.088;2023-04-09T08:47:49;20.40;;;15.93;;
15063;SDS011;7631;52.088;5.088;2023-04-09T08:50:15;21.27;;;16.20;;
15063;SDS011;7631;52.088;5.088;2023-04-09T08:52:40;19.70;;;15.23;;
15063;SDS011;7631;52.088;5.088;2023-04-09T08:55:06;19.63;;;14.93;;
15063;SDS011;7631;52.088;5.088;2023-04-09T08:57:35;19.97;;;15.77;;
15063;SDS011;7631;52.088;5.088;2023-04-09T09:00:01;17.67;;;14.43;;
15063;SDS011;7631;52.088;5.088;2023-04-09T09:02:26;20.30;;;18.13;;
15063;SDS011;7631;52.088;5.088;2023-04-09T09:04:51;26.03;;;23.27;;
15063;SDS011;7631;52.088;5.088;2023-04-09T09:07:19;27.13;;;22.75;;
15063;SDS011;7631;52.088;5.088;2023-04-09T09:10:00;29.97;;;22.97;;
15063;SDS011;7631;52.088;5.088;2023-04-09T09:14:56;29.07;;;22.40;;
15063;SDS011;7631;52.088;5.088;2023-04-09T09:17:22;27.60;;;22.33;;
15063;SDS011;7631;52.088;5.088;2023-04-09T09:19:47;27.67;;;22.37;;
15063;SDS011;7631;52.088;5.088;2023-04-09T09:22:12;26.27;;;20.90;;
15063;SDS011;7631;52.088;5.088;2023-04-09T09:24:45;28.67;;;21.67;;
15063;SDS011;7631;52.088;5.088;2023-04-09T09:27:12;23.60;;;19.90;;
15063;SDS011;7631;52.088;5.088;2023-04-09T09:29:40;24.83;;;19.87;;
15063;SDS011;7631;52.088;5.088;2023-04-09T09:32:05;28.73;;;21.57;;
15063;SDS011;7631;52.088;5.088;2023-04-09T09:34:36;25.03;;;21.83;;
15063;SDS011;7631;52.088;5.088;2023-04-09T09:37:02;27.27;;;21.50;;
15063;SDS011;7631;52.088;5.088;2023-04-09T09:39:47;27.40;;;20.83;;
15063;SDS011;7631;52.088;5.088;2023-04-09T09:42:12;23.97;;;19.33;;
15063;SDS011;7631;52.088;5.088;2023-04-09T09:44:37;26.23;;;21.30;;
15063;SDS011;7631;52.088;5.088;2023-04-09T09:47:03;23.30;;;19.87;;
15063;SDS011;7631;52.088;5.088;2023-04-09T09:49:28;24.23;;;19.40;;
15063;SDS011;7631;52.088;5.088;2023-04-09T09:51:55;24.20;;;19.83;;
15063;SDS011;7631;52.088;5.088;2023-04-09T09:54:21;24.77;;;19.93;;
15063;SDS011;7631;52.088;5.088;2023-04-09T09:56:49;22.23;;;19.43;;
15063;SDS011;7631;52.088;5.088;2023-04-09T09:59:19;26.33;;;19.53;;
15063;SDS011;7631;52.088;5.088;2023-04-09T10:01:50;21.57;;;19.07;;
15063;SDS011;7631;52.088;5.088;2023-04-09T10:04:20;22.43;;;18.67;;
15063;SDS011;7631;52.088;5.088;2023-04-09T10:06:47;21.70;;;18.97;;
15063;SDS011;7631;52.088;5.088;2023-04-09T10:09:13;22.03;;;18.87;;
15063;SDS011;7631;52.088;5.088;2023-04-09T10:11:38;24.07;;;18.67;;
15063;SDS011;7631;52.088;5.088;2023-04-09T10:14:06;22.77;;;18.77;;
15063;SDS011;7631;52.088;5.088;2023-04-09T10:16:32;22.50;;;19.47;;
15063;SDS011;7631;52.088;5.088;2023-04-09T10:18:57;23.80;;;18.90;;
15063;SDS011;7631;52.088;5.088;2023-04-09T10:24:08;22.27;;;19.98;;
15063;SDS011;7631;52.088;5.088;2023-04-09T10:26:33;25.80;;;23.20;;
15063;SDS011;7631;52.088;5.088;2023-04-09T10:29:12;26.13;;;23.33;;
15063;SDS011;7631;52.088;5.088;2023-04-09T10:31:53;25.90;;;23.07;;
15063;SDS011;7631;52.088;5.088;2023-04-09T10:34:22;28.13;;;24.47;;
15063;SDS011;7631;52.088;5.088;2023-04-09T10:36:48;26.33;;;23.47;;
15063;SDS011;7631;52.088;5.088;2023-04-09T10:39:15;28.43;;;24.17;;
15063;SDS011;7631;52.088;5.088;2023-04-09T10:41:41;28.53;;;24.67;;
15063;SDS011;7631;52.088;5.088;2023-04-09T10:44:20;26.97;;;24.07;;
15063;SDS011;7631;52.088;5.088;2023-04-09T10:46:46;27.13;;;24.20;;
15063;SDS011;7631;52.088;5.088;2023-04-09T10:49:18;27.50;;;24.30;;
15063;SDS011;7631;52.088;5.088;2023-04-09T10:52:28;29.80;;;26.90;;
15063;SDS011;7631;52.088;5.088;2023-04-09T10:59:35;26.97;;;23.83;;
15063;SDS011;7631;52.088;5.088;2023-04-09T11:02:00;27.27;;;24.37;;
15063;SDS011;7631;52.088;5.088;2023-04-09T11:07:00;26.03;;;23.27;;
15063;SDS011;7631;52.088;5.088;2023-04-09T11:09:27;26.70;;;22.63;;
15063;SDS011;7631;52.088;5.088;2023-04-09T11:11:52;26.20;;;22.67;;
15063;SDS011;7631;52.088;5.088;2023-04-09T11:14:18;25.83;;;23.03;;
15063;SDS011;7631;52.088;5.088;2023-04-09T11:16:46;23.07;;;20.70;;
15063;SDS011;7631;52.088;5.088;2023-04-09T11:19:11;25.33;;;22.63;;
15063;SDS011;7631;52.088;5.088;2023-04-09T11:21:36;24.73;;;22.13;;
15063;SDS011;7631;52.088;5.088;2023-04-09T11:24:01;26.00;;;23.20;;
15063;SDS011;7631;52.088;5.088;2023-04-09T11:26:33;25.67;;;22.97;;
15063;SDS011;7631;52.088;5.088;2023-04-09T11:29:03;22.90;;;20.60;;
15063;SDS011;7631;52.088;5.088;2023-04-09T11:31:28;25.00;;;22.30;;
15063;SDS011;7631;52.088;5.088;2023-04-09T11:33:53;26.00;;;23.20;;
15063;SDS011;7631;52.088;5.088;2023-04-09T11:36:20;24.00;;;21.50;;
15063;SDS011;7631;52.088;5.088;2023-04-09T11:38:46;24.60;;;22.00;;
15063;SDS011;7631;52.088;5.088;2023-04-09T11:41:12;24.17;;;21.67;;
15063;SDS011;7631;52.088;5.088;2023-04-09T11:43:38;25.07;;;21.47;;
15063;SDS011;7631;52.088;5.088;2023-04-09T11:46:03;23.30;;;20.90;;
15063;SDS011;7631;52.088;5.088;2023-04-09T11:48:29;22.90;;;20.50;;
15063;SDS011;7631;52.088;5.088;2023-04-09T11:50:54;24.47;;;21.73;;
15063;SDS011;7631;52.088;5.088;2023-04-09T11:53:21;26.23;;;23.55;;
15063;SDS011;7631;52.088;5.088;2023-04-09T11:55:51;27.60;;;25.00;;
15063;SDS011;7631;52.088;5.088;2023-04-09T11:58:16;24.87;;;22.20;;
15063;SDS011;7631;52.088;5.088;2023-04-09T12:00:42;26.20;;;23.60;;
15063;SDS011;7631;52.088;5.088;2023-04-09T12:03:08;25.80;;;22.20;;
15063;SDS011;7631;52.088;5.088;2023-04-09T12:05:34;24.53;;;22.00;;
15063;SDS011;7631;52.088;5.088;2023-04-09T12:08:03;24.53;;;21.93;;
15063;SDS011;7631;52.088;5.088;2023-04-09T12:10:29;22.83;;;20.57;;
15063;SDS011;7631;52.088;5.088;2023-04-09T12:12:59;21.83;;;19.53;;
15063;SDS011;7631;52.088;5.088;2023-04-09T12:15:25;20.77;;;18.53;;
15063;SDS011;7631;52.088;5.088;2023-04-09T12:17:55;21.73;;;19.57;;
15063;SDS011;7631;52.088;5.088;2023-04-09T12:20:34;21.10;;;18.97;;
15063;SDS011;7631;52.088;5.088;2023-04-09T12:23:00;22.97;;;19.47;;
15063;SDS011;7631;52.088;5.088;2023-04-09T12:25:27;20.80;;;18.60;;
15063;SDS011;7631;52.088;5.088;2023-04-09T12:27:53;22.00;;;19.70;;
15063;SDS011;7631;52.088;5.088;2023-04-09T12:30:19;20.73;;;18.53;;
15063;SDS011;7631;52.088;5.088;2023-04-09T12:32:45;19.60;;;17.60;;
15063;SDS011;7631;52.088;5.088;2023-04-09T12:35:10;20.80;;;18.70;;
15063;SDS011;7631;52.088;5.088;2023-04-09T12:37:36;19.53;;;17.53;;
15063;SDS011;7631;52.088;5.088;2023-04-09T12:40:01;19.83;;;17.83;;
15063;SDS011;7631;52.088;5.088;2023-04-09T12:42:27;19.17;;;17.23;;
15063;SDS011;7631;52.088;5.088;2023-04-09T12:44:52;18.47;;;16.50;;
15063;SDS011;7631;52.088;5.088;2023-04-09T12:47:17;18.93;;;16.93;;
15063;SDS011;7631;52.088;5.088;2023-04-09T12:49:43;19.10;;;17.20;;
15063;SDS011;7631;52.088;5.088;2023-04-09T12:52:10;18.20;;;16.40;;
15063;SDS011;7631;52.088;5.088;2023-04-09T12:54:35;18.10;;;16.30;;
15063;SDS011;7631;52.088;5.088;2023-04-09T12:57:01;17.70;;;15.90;;
15063;SDS011;7631;52.088;5.088;2023-04-09T12:59:26;17.93;;;16.17;;
15063;SDS011;7631;52.088;5.088;2023-04-09T13:01:51;17.90;;;16.10;;
15063;SDS011;7631;52.088;5.088;2023-04-09T13:04:16;18.33;;;16.40;;
15063;SDS011;7631;52.088;5.088;2023-04-09T13:06:42;17.80;;;16.10;;
15063;SDS011;7631;52.088;5.088;2023-04-09T13:09:07;17.17;;;15.43;;
15063;SDS011;7631;52.088;5.088;2023-04-09T13:11:32;17.63;;;15.67;;
15063;SDS011;7631;52.088;5.088;2023-04-09T13:13:57;16.80;;;15.10;;
15063;SDS011;7631;52.088;5.088;2023-04-09T13:16:22;16.37;;;14.77;;
15063;SDS011;7631;52.088;5.088;2023-04-09T13:18:48;16.70;;;15.10;;
15063;SDS011;7631;52.088;5.088;2023-04-09T13:21:13;16.23;;;14.63;;
15063;SDS011;7631;52.088;5.088;2023-04-09T13:23:42;17.40;;;15.63;;
15063;SDS011;7631;52.088;5.088;2023-04-09T13:26:08;16.50;;;14.80;;
15063;SDS011;7631;52.088;5.088;2023-04-09T13:28:33;16.20;;;14.63;;
15063;SDS011;7631;52.088;5.088;2023-04-09T13:30:58;16.57;;;14.97;;
15063;SDS011;7631;52.088;5.088;2023-04-09T13:33:23;16.87;;;15.27;;
15063;SDS011;7631;52.088;5.088;2023-04-09T13:35:48;15.53;;;14.03;;
15063;SDS011;7631;52.088;5.088;2023-04-09T13:38:15;15.23;;;13.67;;
15063;SDS011;7631;52.088;5.088;2023-04-09T13:40:40;15.80;;;14.30;;
15063;SDS011;7631;52.088;5.088;2023-04-09T13:43:05;15.97;;;14.47;;
15063;SDS011;7631;52.088;5.088;2023-04-09T13:45:30;13.63;;;12.30;;
15063;SDS011;7631;52.088;5.088;2023-04-09T13:47:56;15.10;;;13.67;;
15063;SDS011;7631;52.088;5.088;2023-04-09T13:50:21;15.40;;;13.90;;
15063;SDS011;7631;52.088;5.088;2023-04-09T13:52:46;14.93;;;13.53;;
15063;SDS011;7631;52.088;5.088;2023-04-09T13:55:12;15.03;;;13.53;;
15063;SDS011;7631;52.088;5.088;2023-04-09T13:57:37;13.93;;;12.57;;
15063;SDS011;7631;52.088;5.088;2023-04-09T14:00:02;14.07;;;12.67;;
15063;SDS011;7631;52.088;5.088;2023-04-09T14:02:29;14.23;;;12.73;;
15063;SDS011;7631;52.088;5.088;2023-04-09T14:04:54;13.23;;;11.97;;
15063;SDS011;7631;52.088;5.088;2023-04-09T14:07:21;14.37;;;12.97;;
15063;SDS011;7631;52.088;5.088;2023-04-09T14:09:46;14.73;;;13.33;;
15063;SDS011;7631;52.088;5.088;2023-04-09T14:12:11;14.07;;;12.67;;
15063;SDS011;7631;52.088;5.088;2023-04-09T14:14:36;14.23;;;12.80;;
15063;SDS011;7631;52.088;5.088;2023-04-09T14:17:01;13.07;;;11.87;;
15063;SDS011;7631;52.088;5.088;2023-04-09T14:19:27;14.20;;;12.80;;
15063;SDS011;7631;52.088;5.088;2023-04-09T14:21:53;13.50;;;12.20;;
15063;SDS011;7631;52.088;5.088;2023-04-09T14:24:19;13.17;;;11.97;;
15063;SDS011;7631;52.088;5.088;2023-04-09T14:26:46;12.77;;;11.57;;
15063;SDS011;7631;52.088;5.088;2023-04-09T14:29:12;13.27;;;11.97;;
15063;SDS011;7631;52.088;5.088;2023-04-09T14:31:37;13.57;;;12.27;;
15063;SDS011;7631;52.088;5.088;2023-04-09T14:34:02;13.90;;;12.40;;
15063;SDS011;7631;52.088;5.088;2023-04-09T14:36:27;12.87;;;11.67;;
15063;SDS011;7631;52.088;5.088;2023-04-09T14:38:52;12.60;;;11.40;;
15063;SDS011;7631;52.088;5.088;2023-04-09T14:41:18;11.90;;;10.80;;
15063;SDS011;7631;52.088;5.088;2023-04-09T14:43:43;12.77;;;11.57;;
15063;SDS011;7631;52.088;5.088;2023-04-09T14:46:08;12.37;;;11.20;;
15063;SDS011;7631;52.088;5.088;2023-04-09T14:48:36;11.77;;;10.57;;